createdAt,value
2019-05-18T00:04:17.734Z,13.12
2019-05-18T00:09:23.800Z,13.09
2019-05-18T00:14:29.768Z,12.89
2019-05-18T00:19:35.738Z,12.95
2019-05-18T00:24:41.579Z,12.91
2019-05-18T00:29:47.846Z,12.96
2019-05-18T00:34:53.859Z,12.92
2019-05-18T00:39:59.830Z,13.01
2019-05-18T00:45:08.893Z,13.07
2019-05-18T00:50:15.385Z,13.00
2019-05-18T00:55:21.426Z,13.05
2019-05-18T01:00:27.403Z,12.99
2019-05-18T01:05:33.778Z,13.05
2019-05-18T01:10:40.260Z,13.13
2019-05-18T01:15:46.232Z,13.03
2019-05-18T01:20:52.919Z,12.88
2019-05-18T01:25:58.745Z,12.93
2019-05-18T01:31:04.659Z,12.89
2019-05-18T01:36:11.961Z,12.82
2019-05-18T01:41:17.858Z,12.78
2019-05-18T01:46:24.004Z,12.65
2019-05-18T01:51:29.973Z,12.67
2019-05-18T01:56:35.944Z,12.74
2019-05-18T02:01:41.914Z,12.71
2019-05-18T02:06:48.322Z,12.68
2019-05-18T02:11:54.268Z,12.70
2019-05-18T02:17:00.341Z,12.81
2019-05-18T02:22:06.618Z,12.84
2019-05-18T02:27:12.591Z,12.91
2019-05-18T02:32:18.563Z,12.89
2019-05-18T02:37:24.636Z,12.91
2019-05-18T02:42:30.944Z,12.91
2019-05-18T02:47:37.198Z,12.90
2019-05-18T02:52:43.268Z,13.00
2019-05-18T02:57:49.570Z,13.10
2019-05-18T03:02:55.415Z,13.26
2019-05-18T03:08:01.485Z,13.36
2019-05-18T03:13:07.700Z,13.46
2019-05-18T03:18:14.145Z,13.56
2019-05-18T03:23:20.216Z,13.74
2019-05-18T03:28:28.236Z,13.88
2019-05-18T03:33:34.114Z,13.87
2019-05-18T03:38:40.077Z,13.95
2019-05-18T03:43:46.050Z,13.91
2019-05-18T03:48:52.033Z,13.91
2019-05-18T03:53:57.988Z,14.01
2019-05-18T03:59:03.967Z,14.12
2019-05-18T04:04:09.829Z,14.15
2019-05-18T04:09:17.027Z,14.21
2019-05-18T04:14:23.003Z,14.48
2019-05-18T04:19:44.875Z,14.62
2019-05-18T04:24:36.584Z,14.74
2019-05-18T04:29:42.657Z,14.97
2019-05-18T04:34:49.972Z,15.15
2019-05-18T04:39:56.337Z,15.34
2019-05-18T04:45:02.321Z,15.64
2019-05-18T04:50:09.638Z,15.84
2019-05-18T04:55:15.782Z,15.86
2019-05-18T05:00:22.064Z,16.15
2019-05-18T05:05:28.038Z,16.49
2019-05-18T05:10:34.014Z,16.88
2019-05-18T05:15:40.183Z,17.35
2019-05-18T05:20:47.510Z,17.71
2019-05-18T05:25:53.470Z,17.95
2019-05-18T05:30:59.734Z,18.23
2019-05-18T05:36:06.065Z,18.22
2019-05-18T05:41:16.517Z,18.08
2019-05-18T05:46:20.078Z,17.74
2019-05-18T05:51:26.079Z,17.49
2019-05-18T05:56:32.083Z,17.62
2019-05-18T06:01:38.427Z,17.65
2019-05-18T06:06:45.050Z,17.63
2019-05-18T06:11:51.081Z,17.73
2019-05-18T06:16:57.975Z,17.99
2019-05-18T06:22:03.959Z,18.08
2019-05-18T06:27:10.030Z,18.06
2019-05-18T06:32:16.095Z,18.15
2019-05-18T06:37:22.073Z,18.30
2019-05-18T06:42:28.278Z,18.60
2019-05-18T06:47:34.238Z,18.64
2019-05-18T06:52:41.449Z,18.84
2019-05-18T06:57:48.386Z,18.74
2019-05-18T07:02:54.286Z,18.74
2019-05-18T07:08:00.280Z,18.97
2019-05-18T07:13:06.522Z,19.09
2019-05-18T07:18:12.494Z,19.25
2019-05-18T07:23:18.574Z,19.43
2019-05-18T07:28:25.057Z,19.64
2019-05-18T07:33:30.917Z,19.73
2019-05-18T07:38:37.200Z,19.78
2019-05-18T07:43:43.168Z,19.89
2019-05-18T07:48:49.136Z,19.87
2019-05-18T07:53:55.107Z,20.00
2019-05-18T07:59:01.080Z,19.84
2019-05-18T08:04:07.178Z,19.74
2019-05-18T08:09:13.376Z,19.70
2019-05-18T08:14:19.300Z,19.58
2019-05-18T08:19:25.273Z,19.45
2019-05-18T08:24:31.241Z,19.35
2019-05-18T08:29:39.160Z,19.17
2019-05-18T08:34:45.334Z,19.01
2019-05-18T08:39:51.436Z,18.82
2019-05-18T08:44:57.425Z,18.71
2019-05-18T08:50:03.553Z,18.45
2019-05-18T08:55:10.247Z,18.07
2019-05-18T09:00:17.034Z,17.86
2019-05-18T09:05:23.523Z,17.68
2019-05-18T09:10:29.588Z,17.56
2019-05-18T09:15:35.556Z,17.73
2019-05-18T09:20:41.841Z,17.88
2019-05-18T09:25:47.981Z,17.74
2019-05-18T09:30:55.215Z,17.42
2019-05-18T09:36:01.217Z,17.44
2019-05-18T09:41:07.400Z,17.65
2019-05-18T09:46:13.388Z,17.84
2019-05-18T09:51:19.423Z,18.15
2019-05-18T09:56:25.372Z,18.40
2019-05-18T10:01:31.441Z,18.81
2019-05-18T10:06:37.358Z,19.06
2019-05-18T10:11:43.507Z,19.37
2019-05-18T10:16:49.818Z,19.64
2019-05-18T10:21:55.767Z,20.09
2019-05-18T10:27:01.815Z,20.12
2019-05-18T10:32:09.627Z,20.28
2019-05-18T10:37:15.596Z,20.39
2019-05-18T10:42:21.589Z,20.49
2019-05-18T10:47:27.606Z,20.79
2019-05-18T10:52:33.505Z,21.10
2019-05-18T10:57:39.480Z,21.10
2019-05-18T11:02:45.483Z,21.17
2019-05-18T11:07:52.144Z,21.37
2019-05-18T11:12:58.310Z,21.53
2019-05-18T11:18:04.285Z,21.58
2019-05-18T11:23:11.270Z,21.66
2019-05-18T11:28:17.768Z,21.43
2019-05-18T11:33:25.067Z,21.53
2019-05-18T11:38:31.035Z,21.60
2019-05-18T11:43:37.321Z,21.80
2019-05-18T11:48:43.413Z,22.20
2019-05-18T11:53:57.828Z,22.00
2019-05-18T11:58:56.128Z,22.16
2019-05-18T12:04:02.018Z,22.44
2019-05-18T12:09:08.295Z,21.88
2019-05-18T12:14:14.368Z,21.69
2019-05-18T12:19:20.453Z,21.38
2019-05-18T12:24:26.426Z,21.33
2019-05-18T12:29:32.491Z,21.39
2019-05-18T12:34:38.705Z,21.31
2019-05-18T12:39:45.044Z,21.13
2019-05-18T12:44:51.325Z,21.33
2019-05-18T12:49:57.290Z,21.50
2019-05-18T12:55:03.360Z,21.95
2019-05-18T13:00:15.494Z,22.28
2019-05-18T13:05:21.881Z,22.15
2019-05-18T13:10:28.344Z,21.84
2019-05-18T13:15:34.733Z,21.47
2019-05-18T13:20:40.712Z,21.55
2019-05-18T13:25:46.660Z,21.67
2019-05-18T13:30:52.924Z,21.76
2019-05-18T13:36:00.608Z,21.68
2019-05-18T13:41:06.830Z,21.57
2019-05-18T13:46:13.212Z,21.71
2019-05-18T13:51:19.282Z,21.35
2019-05-18T13:56:25.267Z,21.58
2019-05-18T14:01:31.432Z,21.52
2019-05-18T14:06:37.843Z,21.28
2019-05-18T14:11:43.802Z,21.29
2019-05-18T14:16:49.855Z,20.97
2019-05-18T14:21:55.829Z,20.86
2019-05-18T14:27:01.715Z,21.20
2019-05-18T14:32:10.830Z,21.62
2019-05-18T14:37:14.541Z,21.57
2019-05-18T14:42:20.301Z,21.72
2019-05-18T14:47:27.640Z,21.75
2019-05-18T14:52:33.802Z,21.82
2019-05-18T14:57:39.869Z,21.58
2019-05-18T15:02:45.949Z,21.58
2019-05-18T15:07:52.002Z,21.85
2019-05-18T15:12:58.104Z,21.85
2019-05-18T15:18:04.097Z,21.83
2019-05-18T15:23:10.463Z,21.95
2019-05-18T15:28:16.726Z,22.02
2019-05-18T15:33:22.700Z,21.96
2019-05-18T15:38:28.662Z,21.81
2019-05-18T15:43:34.652Z,21.88
2019-05-18T15:48:40.735Z,21.87
2019-05-18T15:53:46.888Z,21.86
2019-05-18T15:58:52.749Z,21.95
2019-05-18T16:03:58.725Z,21.96
2019-05-18T16:09:06.037Z,21.79
2019-05-18T16:14:12.002Z,21.69
2019-05-18T16:19:18.245Z,21.59
2019-05-18T16:24:24.248Z,21.58
2019-05-18T16:29:30.237Z,21.58
2019-05-18T16:34:36.291Z,21.44
2019-05-18T16:39:42.386Z,21.44
2019-05-18T16:44:48.442Z,21.49
2019-05-18T16:49:54.425Z,21.49
2019-05-18T16:55:00.484Z,21.34
2019-05-18T17:00:16.174Z,21.36
2019-05-18T17:05:21.747Z,21.30
2019-05-18T17:10:27.818Z,21.23
2019-05-18T17:15:34.819Z,21.30
2019-05-18T17:20:43.138Z,22.18
2019-05-18T17:25:49.033Z,22.89
2019-05-18T17:30:55.287Z,22.71
2019-05-18T17:36:01.359Z,22.54
2019-05-18T17:41:07.466Z,22.56
2019-05-18T17:46:13.500Z,21.76
2019-05-18T17:51:19.886Z,21.09
2019-05-18T17:56:25.970Z,20.85
2019-05-18T18:01:32.134Z,21.05
2019-05-18T18:06:38.001Z,21.56
2019-05-18T18:11:44.074Z,21.57
2019-05-18T18:16:50.563Z,20.76
2019-05-18T18:21:57.720Z,20.18
2019-05-18T18:27:03.843Z,19.90
2019-05-18T18:32:09.950Z,19.76
2019-05-18T18:37:15.997Z,19.51
2019-05-18T18:42:22.174Z,19.10
2019-05-18T18:47:28.429Z,18.56
2019-05-18T18:52:34.501Z,18.25
2019-05-18T18:57:42.203Z,18.06
2019-05-18T19:02:48.596Z,18.21
2019-05-18T19:07:54.671Z,18.33
2019-05-18T19:13:00.992Z,18.41
2019-05-18T19:18:07.024Z,18.31
2019-05-18T19:23:13.198Z,18.04
2019-05-18T19:28:19.286Z,17.79
2019-05-18T19:33:25.344Z,17.60
2019-05-18T19:38:31.214Z,17.50
2019-05-18T19:43:37.212Z,17.39
2019-05-18T19:48:43.356Z,17.31
2019-05-18T19:53:49.636Z,17.33
2019-05-18T19:58:55.510Z,17.25
2019-05-18T20:04:01.582Z,17.38
2019-05-18T20:09:07.875Z,17.52
2019-05-18T20:14:13.935Z,17.57
2019-05-18T20:19:19.999Z,17.66
2019-05-18T20:24:26.228Z,17.55
2019-05-18T20:29:32.452Z,17.30
2019-05-18T20:34:38.423Z,17.24
2019-05-18T20:39:44.409Z,17.27
2019-05-18T20:44:50.467Z,17.31
2019-05-18T20:49:56.850Z,17.28
2019-05-18T20:55:02.936Z,17.16
2019-05-18T21:00:10.632Z,17.17
2019-05-18T21:05:18.246Z,17.19
2019-05-18T21:10:24.228Z,17.18
2019-05-18T21:15:30.286Z,17.18
2019-05-18T21:20:36.870Z,17.16
2019-05-18T21:25:42.946Z,17.09
2019-05-18T21:30:49.020Z,16.97
2019-05-18T21:35:55.002Z,16.84
2019-05-18T21:41:01.059Z,16.80
2019-05-18T21:46:07.135Z,16.73
2019-05-18T21:51:13.209Z,16.67
2019-05-18T21:56:19.250Z,16.62
2019-05-18T22:01:25.668Z,16.81
2019-05-18T22:06:31.740Z,16.49
2019-05-18T22:11:38.528Z,16.05
2019-05-18T22:16:44.496Z,16.10
2019-05-18T22:21:50.366Z,16.20
2019-05-18T22:26:56.291Z,16.23
2019-05-18T22:32:02.309Z,16.36
2019-05-18T22:37:08.380Z,16.36
2019-05-18T22:42:14.252Z,16.26
2019-05-18T22:47:20.321Z,16.15
2019-05-18T22:52:26.494Z,16.26
2019-05-18T22:57:32.570Z,16.23
2019-05-18T23:02:38.649Z,16.20
2019-05-18T23:07:44.762Z,15.94
2019-05-18T23:12:50.799Z,15.91
2019-05-18T23:17:56.861Z,15.99
2019-05-18T23:23:02.844Z,16.08
2019-05-18T23:28:08.937Z,16.03
2019-05-18T23:33:14.976Z,15.92
2019-05-18T23:38:20.809Z,15.84
2019-05-18T23:43:26.720Z,15.71
2019-05-18T23:48:32.693Z,15.64
2019-05-18T23:53:38.760Z,15.75
2019-05-18T23:58:44.635Z,15.64
